sensor_id;sensor_type;location;lat;lon;timestamp;temperature;humidity
37678;DHT22;23517;50.390;8.616;2024-01-15T00:00:13;-0.10;50.80
37678;DHT22;23517;50.390;8.616;2024-01-15T00:02:40;0.00;50.10
37678;DHT22;23517;50.390;8.616;2024-01-15T00:05:07;-0.10;50.30
37678;DHT22;23517;50.390;8.616;2024-01-15T00:07:33;-0.10;50.70
37678;DHT22;23517;50.390;8.616;2024-01-15T00:10:01;-0.10;50.80
37678;DHT22;23517;50.390;8.616;2024-01-15T00:12:28;-0.10;50.40
37678;DHT22;23517;50.390;8.616;2024-01-15T00:14:55;-0.10;49.60
37678;DHT22;23517;50.390;8.616;2024-01-15T00:17:22;-0.10;50.00
37678;DHT22;23517;50.390;8.616;2024-01-15T00:19:49;-0.10;49.70
37678;DHT22;23517;50.390;8.616;2024-01-15T00:22:16;-0.20;51.00
37678;DHT22;23517;50.390;8.616;2024-01-15T00:24:42;-0.20;50.90
37678;DHT22;23517;50.390;8.616;2024-01-15T00:27:09;-0.20;51.40
37678;DHT22;23517;50.390;8.616;2024-01-15T00:29:36;-0.10;51.70
37678;DHT22;23517;50.390;8.616;2024-01-15T00:32:03;-0.10;51.50
37678;DHT22;23517;50.390;8.616;2024-01-15T00:34:30;-0.10;51.00
37678;DHT22;23517;50.390;8.616;2024-01-15T00:36:57;-0.10;51.10
37678;DHT22;23517;50.390;8.616;2024-01-15T00:39:26;-0.10;50.90
37678;DHT22;23517;50.390;8.616;2024-01-15T00:41:53;-0.10;50.80
37678;DHT22;23517;50.390;8.616;2024-01-15T00:44:20;-0.10;51.10
37678;DHT22;23517;50.390;8.616;2024-01-15T00:46:47;-0.10;51.50
37678;DHT22;23517;50.390;8.616;2024-01-15T00:49:13;-0.10;50.90
37678;DHT22;23517;50.390;8.616;2024-01-15T00:51:41;-0.10;50.60
37678;DHT22;23517;50.390;8.616;2024-01-15T00:54:08;-0.10;50.80
37678;DHT22;23517;50.390;8.616;2024-01-15T00:56:35;-0.10;51.10
37678;DHT22;23517;50.390;8.616;2024-01-15T00:59:01;-0.10;51.90
37678;DHT22;23517;50.390;8.616;2024-01-15T01:01:28;-0.10;53.20
37678;DHT22;23517;50.390;8.616;2024-01-15T01:03:56;-0.10;53.20
37678;DHT22;23517;50.390;8.616;2024-01-15T01:06:23;-0.10;52.70
37678;DHT22;23517;50.390;8.616;2024-01-15T01:08:49;-0.10;52.30
37678;DHT22;23517;50.390;8.616;2024-01-15T01:11:16;-0.10;51.50
37678;DHT22;23517;50.390;8.616;2024-01-15T01:13:43;-0.10;51.30
37678;DHT22;23517;50.390;8.616;2024-01-15T01:16:10;-0.20;52.30
37678;DHT22;23517;50.390;8.616;2024-01-15T01:18:36;-0.10;51.70
37678;DHT22;23517;50.390;8.616;2024-01-15T01:21:03;-0.10;51.00
37678;DHT22;23517;50.390;8.616;2024-01-15T01:23:30;-0.10;51.00
37678;DHT22;23517;50.390;8.616;2024-01-15T01:28:30;-0.10;51.80
37678;DHT22;23517;50.390;8.616;2024-01-15T01:30:57;-0.10;52.10
37678;DHT22;23517;50.390;8.616;2024-01-15T01:33:24;-0.10;51.90
37678;DHT22;23517;50.390;8.616;2024-01-15T01:35:51;-0.10;50.80
37678;DHT22;23517;50.390;8.616;2024-01-15T01:38:17;-0.10;51.00
37678;DHT22;23517;50.390;8.616;2024-01-15T01:40:44;0.00;50.30
37678;DHT22;23517;50.390;8.616;2024-01-15T01:43:11;0.00;50.60
37678;DHT22;23517;50.390;8.616;2024-01-15T01:45:38;0.00;49.60
37678;DHT22;23517;50.390;8.616;2024-01-15T01:48:05;0.10;50.00
37678;DHT22;23517;50.390;8.616;2024-01-15T01:50:32;0.00;49.70
37678;DHT22;23517;50.390;8.616;2024-01-15T01:53:00;0.00;49.60
37678;DHT22;23517;50.390;8.616;2024-01-15T01:55:29;0.00;49.70
37678;DHT22;23517;50.390;8.616;2024-01-15T01:57:56;0.00;50.00
37678;DHT22;23517;50.390;8.616;2024-01-15T02:00:23;0.00;50.50
37678;DHT22;23517;50.390;8.616;2024-01-15T02:02:50;0.00;50.10
37678;DHT22;23517;50.390;8.616;2024-01-15T02:05:18;0.00;50.50
37678;DHT22;23517;50.390;8.616;2024-01-15T02:07:46;0.00;50.50
37678;DHT22;23517;50.390;8.616;2024-01-15T02:10:14;0.00;50.60
37678;DHT22;23517;50.390;8.616;2024-01-15T02:12:42;0.00;50.80
37678;DHT22;23517;50.390;8.616;2024-01-15T02:15:09;-0.10;51.10
37678;DHT22;23517;50.390;8.616;2024-01-15T02:17:59;0.00;51.40
37678;DHT22;23517;50.390;8.616;2024-01-15T02:20:27;-0.10;51.80
37678;DHT22;23517;50.390;8.616;2024-01-15T02:23:08;-0.10;52.40
37678;DHT22;23517;50.390;8.616;2024-01-15T02:25:43;-0.10;51.60
37678;DHT22;23517;50.390;8.616;2024-01-15T02:28:14;-0.10;51.70
37678;DHT22;23517;50.390;8.616;2024-01-15T02:30:43;-0.10;51.70
37678;DHT22;23517;50.390;8.616;2024-01-15T02:33:11;0.00;51.30
37678;DHT22;23517;50.390;8.616;2024-01-15T02:35:39;-0.10;51.90
37678;DHT22;23517;50.390;8.616;2024-01-15T02:38:06;-0.10;51.90
37678;DHT22;23517;50.390;8.616;2024-01-15T02:40:34;-0.10;51.80
37678;DHT22;23517;50.390;8.616;2024-01-15T02:43:06;-0.10;52.10
37678;DHT22;23517;50.390;8.616;2024-01-15T02:45:33;-0.10;52.10
37678;DHT22;23517;50.390;8.616;2024-01-15T02:48:00;-0.10;51.80
37678;DHT22;23517;50.390;8.616;2024-01-15T02:50:26;-0.10;51.50
37678;DHT22;23517;50.390;8.616;2024-01-15T02:52:53;-0.10;51.70
37678;DHT22;23517;50.390;8.616;2024-01-15T02:55:20;-0.10;52.40
37678;DHT22;23517;50.390;8.616;2024-01-15T02:57:47;-0.10;52.40
37678;DHT22;23517;50.390;8.616;2024-01-15T03:00:14;-0.20;51.90
37678;DHT22;23517;50.390;8.616;2024-01-15T03:02:43;-0.10;52.70
37678;DHT22;23517;50.390;8.616;2024-01-15T03:05:14;-0.20;52.50
37678;DHT22;23517;50.390;8.616;2024-01-15T03:07:40;-0.10;52.80
37678;DHT22;23517;50.390;8.616;2024-01-15T03:10:07;-0.10;52.10
37678;DHT22;23517;50.390;8.616;2024-01-15T03:12:35;-0.10;52.70
37678;DHT22;23517;50.390;8.616;2024-01-15T03:15:02;-0.20;51.60
37678;DHT22;23517;50.390;8.616;2024-01-15T03:17:29;-0.10;51.50
37678;DHT22;23517;50.390;8.616;2024-01-15T03:19:55;-0.10;51.80
37678;DHT22;23517;50.390;8.616;2024-01-15T03:22:22;-0.20;52.00
37678;DHT22;23517;50.390;8.616;2024-01-15T03:24:49;-0.20;52.00
37678;DHT22;23517;50.390;8.616;2024-01-15T03:27:16;-0.20;51.60
37678;DHT22;23517;50.390;8.616;2024-01-15T03:29:43;-0.10;52.20
37678;DHT22;23517;50.390;8.616;2024-01-15T03:32:09;-0.20;51.90
37678;DHT22;23517;50.390;8.616;2024-01-15T03:34:36;-0.20;52.30
37678;DHT22;23517;50.390;8.616;2024-01-15T03:37:03;-0.20;53.00
37678;DHT22;23517;50.390;8.616;2024-01-15T03:39:30;-0.20;53.10
37678;DHT22;23517;50.390;8.616;2024-01-15T03:41:59;-0.20;53.20
37678;DHT22;23517;50.390;8.616;2024-01-15T03:44:26;-0.20;53.20
37678;DHT22;23517;50.390;8.616;2024-01-15T03:46:52;-0.20;53.20
37678;DHT22;23517;50.390;8.616;2024-01-15T03:49:21;-0.20;53.20
37678;DHT22;23517;50.390;8.616;2024-01-15T03:51:48;-0.20;53.80
37678;DHT22;23517;50.390;8.616;2024-01-15T03:54:15;-0.20;54.00
37678;DHT22;23517;50.390;8.616;2024-01-15T03:56:46;-0.20;54.30
37678;DHT22;23517;50.390;8.616;2024-01-15T03:59:12;-0.20;54.20
37678;DHT22;23517;50.390;8.616;2024-01-15T04:01:39;-0.20;54.00
37678;DHT22;23517;50.390;8.616;2024-01-15T04:04:06;-0.30;53.90
37678;DHT22;23517;50.390;8.616;2024-01-15T04:06:33;-0.30;53.20
37678;DHT22;23517;50.390;8.616;2024-01-15T04:08:59;-0.30;53.20
37678;DHT22;23517;50.390;8.616;2024-01-15T04:11:27;-0.30;53.10
37678;DHT22;23517;50.390;8.616;2024-01-15T04:13:53;-0.30;53.20
37678;DHT22;23517;50.390;8.616;2024-01-15T04:16:20;-0.30;53.10
37678;DHT22;23517;50.390;8.616;2024-01-15T04:18:47;-0.30;53.20
37678;DHT22;23517;50.390;8.616;2024-01-15T04:21:13;-0.30;53.20
37678;DHT22;23517;50.390;8.616;2024-01-15T04:23:40;-0.40;53.10
37678;DHT22;23517;50.390;8.616;2024-01-15T04:26:07;-0.40;53.10
37678;DHT22;23517;50.390;8.616;2024-01-15T04:28:33;-0.40;53.10
37678;DHT22;23517;50.390;8.616;2024-01-15T04:31:00;-0.40;53.10
37678;DHT22;23517;50.390;8.616;2024-01-15T04:33:28;-0.30;53.20
37678;DHT22;23517;50.390;8.616;2024-01-15T04:35:55;-0.40;52.90
37678;DHT22;23517;50.390;8.616;2024-01-15T04:38:21;-0.30;53.20
37678;DHT22;23517;50.390;8.616;2024-01-15T04:40:48;-0.30;53.20
37678;DHT22;23517;50.390;8.616;2024-01-15T04:43:15;-0.20;53.20
37678;DHT22;23517;50.390;8.616;2024-01-15T04:45:41;-0.20;52.50
37678;DHT22;23517;50.390;8.616;2024-01-15T04:48:08;-0.30;53.10
37678;DHT22;23517;50.390;8.616;2024-01-15T04:50:35;-0.20;52.80
37678;DHT22;23517;50.390;8.616;2024-01-15T04:53:02;-0.20;52.70
37678;DHT22;23517;50.390;8.616;2024-01-15T04:55:28;-0.20;51.80
37678;DHT22;23517;50.390;8.616;2024-01-15T04:57:55;-0.30;52.70
37678;DHT22;23517;50.390;8.616;2024-01-15T05:00:22;-0.30;53.10
37678;DHT22;23517;50.390;8.616;2024-01-15T05:02:49;-0.30;53.10
37678;DHT22;23517;50.390;8.616;2024-01-15T05:05:15;-0.30;53.20
37678;DHT22;23517;50.390;8.616;2024-01-15T05:07:42;-0.20;52.30
37678;DHT22;23517;50.390;8.616;2024-01-15T05:10:09;-0.20;52.40
37678;DHT22;23517;50.390;8.616;2024-01-15T05:12:36;-0.30;52.40
37678;DHT22;23517;50.390;8.616;2024-01-15T05:15:03;-0.30;52.10
37678;DHT22;23517;50.390;8.616;2024-01-15T05:17:30;-0.30;53.00
37678;DHT22;23517;50.390;8.616;2024-01-15T05:19:57;-0.30;52.70
37678;DHT22;23517;50.390;8.616;2024-01-15T05:22:24;-0.30;52.80
37678;DHT22;23517;50.390;8.616;2024-01-15T05:24:51;-0.20;51.40
37678;DHT22;23517;50.390;8.616;2024-01-15T05:27:18;-0.30;51.60
37678;DHT22;23517;50.390;8.616;2024-01-15T05:29:45;-0.30;51.70
37678;DHT22;23517;50.390;8.616;2024-01-15T05:32:14;-0.20;52.00
37678;DHT22;23517;50.390;8.616;2024-01-15T05:34:41;-0.30;53.00
37678;DHT22;23517;50.390;8.616;2024-01-15T05:37:07;-0.30;52.70
37678;DHT22;23517;50.390;8.616;2024-01-15T05:39:34;-0.30;53.10
37678;DHT22;23517;50.390;8.616;2024-01-15T05:42:01;-0.30;53.20
37678;DHT22;23517;50.390;8.616;2024-01-15T05:44:28;-0.30;52.90
37678;DHT22;23517;50.390;8.616;2024-01-15T05:46:54;-0.30;53.10
37678;DHT22;23517;50.390;8.616;2024-01-15T05:49:21;-0.30;53.20
37678;DHT22;23517;50.390;8.616;2024-01-15T05:51:48;-0.30;53.20
37678;DHT22;23517;50.390;8.616;2024-01-15T05:54:15;-0.20;53.20
37678;DHT22;23517;50.390;8.616;2024-01-15T05:56:42;-0.20;53.20
37678;DHT22;23517;50.390;8.616;2024-01-15T05:59:08;-0.20;52.60
37678;DHT22;23517;50.390;8.616;2024-01-15T06:01:38;-0.20;52.20
37678;DHT22;23517;50.390;8.616;2024-01-15T06:04:05;-0.20;52.30
37678;DHT22;23517;50.390;8.616;2024-01-15T06:06:33;-0.20;52.20
37678;DHT22;23517;50.390;8.616;2024-01-15T06:08:59;-0.20;51.70
37678;DHT22;23517;50.390;8.616;2024-01-15T06:11:31;-0.20;51.70
37678;DHT22;23517;50.390;8.616;2024-01-15T06:13:58;-0.20;51.70
37678;DHT22;23517;50.390;8.616;2024-01-15T06:16:28;-0.30;51.90
37678;DHT22;23517;50.390;8.616;2024-01-15T06:18:55;-0.30;51.80
37678;DHT22;23517;50.390;8.616;2024-01-15T06:21:22;-0.30;51.60
37678;DHT22;23517;50.390;8.616;2024-01-15T06:23:49;-0.30;51.80
37678;DHT22;23517;50.390;8.616;2024-01-15T06:26:15;-0.30;51.70
37678;DHT22;23517;50.390;8.616;2024-01-15T06:28:42;-0.40;51.90
37678;DHT22;23517;50.390;8.616;2024-01-15T06:31:09;-0.40;51.90
37678;DHT22;23517;50.390;8.616;2024-01-15T06:33:36;-0.40;52.20
37678;DHT22;23517;50.390;8.616;2024-01-15T06:36:03;-0.40;52.50
37678;DHT22;23517;50.390;8.616;2024-01-15T06:38:30;-0.50;53.10
37678;DHT22;23517;50.390;8.616;2024-01-15T06:40:57;-0.40;53.10
37678;DHT22;23517;50.390;8.616;2024-01-15T06:43:23;-0.40;53.10
37678;DHT22;23517;50.390;8.616;2024-01-15T06:45:50;-0.40;53.10
37678;DHT22;23517;50.390;8.616;2024-01-15T06:48:17;-0.40;52.40
37678;DHT22;23517;50.390;8.616;2024-01-15T06:50:44;-0.40;52.60
37678;DHT22;23517;50.390;8.616;2024-01-15T06:53:11;-0.50;53.00
37678;DHT22;23517;50.390;8.616;2024-01-15T06:55:38;-0.50;53.10
37678;DHT22;23517;50.390;8.616;2024-01-15T06:58:05;-0.50;54.00
37678;DHT22;23517;50.390;8.616;2024-01-15T07:00:32;-0.50;53.10
37678;DHT22;23517;50.390;8.616;2024-01-15T07:02:59;-0.50;53.10
37678;DHT22;23517;50.390;8.616;2024-01-15T07:05:26;-0.50;53.50
37678;DHT22;23517;50.390;8.616;2024-01-15T07:07:53;-0.40;53.60
37678;DHT22;23517;50.390;8.616;2024-01-15T07:10:20;-0.40;53.60
37678;DHT22;23517;50.390;8.616;2024-01-15T07:12:46;-0.30;53.20
37678;DHT22;23517;50.390;8.616;2024-01-15T07:15:14;-0.30;53.20
37678;DHT22;23517;50.390;8.616;2024-01-15T07:17:41;-0.30;53.20
37678;DHT22;23517;50.390;8.616;2024-01-15T07:20:09;-0.30;53.20
37678;DHT22;23517;50.390;8.616;2024-01-15T07:22:36;-0.30;53.20
37678;DHT22;23517;50.390;8.616;2024-01-15T07:25:04;-0.40;53.10
37678;DHT22;23517;50.390;8.616;2024-01-15T07:27:32;-0.30;53.20
37678;DHT22;23517;50.390;8.616;2024-01-15T07:29:59;-0.30;54.00
37678;DHT22;23517;50.390;8.616;2024-01-15T07:32:28;-0.20;53.80
37678;DHT22;23517;50.390;8.616;2024-01-15T07:34:55;-0.20;54.00
37678;DHT22;23517;50.390;8.616;2024-01-15T07:37:22;-0.10;54.00
37678;DHT22;23517;50.390;8.616;2024-01-15T07:39:49;-0.10;53.20
37678;DHT22;23517;50.390;8.616;2024-01-15T07:42:16;-0.10;53.60
37678;DHT22;23517;50.390;8.616;2024-01-15T07:44:43;-0.10;54.00
37678;DHT22;23517;50.390;8.616;2024-01-15T07:47:09;0.00;54.20
37678;DHT22;23517;50.390;8.616;2024-01-15T07:49:36;0.00;55.20
37678;DHT22;23517;50.390;8.616;2024-01-15T07:52:03;0.00;55.30
37678;DHT22;23517;50.390;8.616;2024-01-15T07:54:31;0.00;54.70
37678;DHT22;23517;50.390;8.616;2024-01-15T07:57:02;0.00;55.20
37678;DHT22;23517;50.390;8.616;2024-01-15T07:59:32;-0.10;55.00
37678;DHT22;23517;50.390;8.616;2024-01-15T08:01:59;0.00;54.70
37678;DHT22;23517;50.390;8.616;2024-01-15T08:04:26;-0.10;54.80
37678;DHT22;23517;50.390;8.616;2024-01-15T08:06:54;-0.10;54.80
37678;DHT22;23517;50.390;8.616;2024-01-15T08:09:21;0.00;54.00
37678;DHT22;23517;50.390;8.616;2024-01-15T08:11:48;0.00;54.30
37678;DHT22;23517;50.390;8.616;2024-01-15T08:14:15;0.00;53.30
37678;DHT22;23517;50.390;8.616;2024-01-15T08:16:42;0.00;53.30
37678;DHT22;23517;50.390;8.616;2024-01-15T08:19:10;0.00;53.50
37678;DHT22;23517;50.390;8.616;2024-01-15T08:21:37;0.10;53.30
37678;DHT22;23517;50.390;8.616;2024-01-15T08:24:04;0.10;53.30
37678;DHT22;23517;50.390;8.616;2024-01-15T08:26:31;0.10;53.40
37678;DHT22;23517;50.390;8.616;2024-01-15T08:28:58;0.10;53.40
37678;DHT22;23517;50.390;8.616;2024-01-15T08:31:25;0.20;53.30
37678;DHT22;23517;50.390;8.616;2024-01-15T08:33:53;0.30;52.70
37678;DHT22;23517;50.390;8.616;2024-01-15T08:36:21;0.40;51.20
37678;DHT22;23517;50.390;8.616;2024-01-15T08:38:48;0.40;50.80
37678;DHT22;23517;50.390;8.616;2024-01-15T08:41:14;0.40;50.40
37678;DHT22;23517;50.390;8.616;2024-01-15T08:43:41;0.40;50.70
37678;DHT22;23517;50.390;8.616;2024-01-15T08:46:08;0.30;50.20
37678;DHT22;23517;50.390;8.616;2024-01-15T08:48:35;0.30;51.00
37678;DHT22;23517;50.390;8.616;2024-01-15T08:51:02;0.30;51.20
37678;DHT22;23517;50.390;8.616;2024-01-15T08:53:29;0.20;51.00
37678;DHT22;23517;50.390;8.616;2024-01-15T08:55:55;0.20;51.50
37678;DHT22;23517;50.390;8.616;2024-01-15T08:58:23;0.30;51.60
37678;DHT22;23517;50.390;8.616;2024-01-15T09:00:51;0.30;51.10
37678;DHT22;23517;50.390;8.616;2024-01-15T09:03:18;0.30;51.40
37678;DHT22;23517;50.390;8.616;2024-01-15T09:05:44;0.40;51.80
37678;DHT22;23517;50.390;8.616;2024-01-15T09:08:11;0.50;51.10
37678;DHT22;23517;50.390;8.616;2024-01-15T09:10:38;0.50;51.20
37678;DHT22;23517;50.390;8.616;2024-01-15T09:13:05;0.60;50.50
37678;DHT22;23517;50.390;8.616;2024-01-15T09:15:32;0.70;50.90
37678;DHT22;23517;50.390;8.616;2024-01-15T09:17:59;0.70;49.50
37678;DHT22;23517;50.390;8.616;2024-01-15T09:20:29;0.80;49.20
37678;DHT22;23517;50.390;8.616;2024-01-15T09:22:57;0.90;48.60
37678;DHT22;23517;50.390;8.616;2024-01-15T09:25:24;0.90;48.20
37678;DHT22;23517;50.390;8.616;2024-01-15T09:27:50;0.90;48.30
37678;DHT22;23517;50.390;8.616;2024-01-15T09:30:17;0.90;48.30
37678;DHT22;23517;50.390;8.616;2024-01-15T09:32:44;0.90;47.90
37678;DHT22;23517;50.390;8.616;2024-01-15T09:35:11;1.00;48.10
37678;DHT22;23517;50.390;8.616;2024-01-15T09:37:39;1.10;47.10
37678;DHT22;23517;50.390;8.616;2024-01-15T09:40:14;1.20;45.80
37678;DHT22;23517;50.390;8.616;2024-01-15T09:42:42;1.30;45.30
37678;DHT22;23517;50.390;8.616;2024-01-15T09:45:10;1.40;45.10
37678;DHT22;23517;50.390;8.616;2024-01-15T09:47:37;1.50;44.30
37678;DHT22;23517;50.390;8.616;2024-01-15T09:50:10;1.70;43.90
37678;DHT22;23517;50.390;8.616;2024-01-15T09:52:37;1.80;43.20
37678;DHT22;23517;50.390;8.616;2024-01-15T09:55:05;1.80;43.20
37678;DHT22;23517;50.390;8.616;2024-01-15T09:57:32;1.80;43.20
37678;DHT22;23517;50.390;8.616;2024-01-15T10:00:02;1.90;42.50
37678;DHT22;23517;50.390;8.616;2024-01-15T10:02:33;1.70;42.50
37678;DHT22;23517;50.390;8.616;2024-01-15T10:05:00;1.70;42.40
37678;DHT22;23517;50.390;8.616;2024-01-15T10:07:29;1.80;42.80
37678;DHT22;23517;50.390;8.616;2024-01-15T10:09:56;1.80;42.10
37678;DHT22;23517;50.390;8.616;2024-01-15T10:12:23;1.90;42.60
37678;DHT22;23517;50.390;8.616;2024-01-15T10:14:50;2.00;42.00
37678;DHT22;23517;50.390;8.616;2024-01-15T10:17:17;2.10;40.60
37678;DHT22;23517;50.390;8.616;2024-01-15T10:19:47;2.10;41.00
37678;DHT22;23517;50.390;8.616;2024-01-15T10:22:16;2.10;40.10
37678;DHT22;23517;50.390;8.616;2024-01-15T10:24:44;1.90;40.50
37678;DHT22;23517;50.390;8.616;2024-01-15T10:27:12;1.90;41.50
37678;DHT22;23517;50.390;8.616;2024-01-15T10:29:41;2.00;41.50
37678;DHT22;23517;50.390;8.616;2024-01-15T10:32:09;2.10;40.60
37678;DHT22;23517;50.390;8.616;2024-01-15T10:34:40;2.20;40.60
37678;DHT22;23517;50.390;8.616;2024-01-15T10:37:09;2.20;40.00
37678;DHT22;23517;50.390;8.616;2024-01-15T10:39:36;2.20;39.30
37678;DHT22;23517;50.390;8.616;2024-01-15T10:42:05;2.30;39.70
37678;DHT22;23517;50.390;8.616;2024-01-15T10:44:32;2.40;38.30
37678;DHT22;23517;50.390;8.616;2024-01-15T10:47:02;2.40;38.80
37678;DHT22;23517;50.390;8.616;2024-01-15T10:49:29;2.30;38.90
37678;DHT22;23517;50.390;8.616;2024-01-15T10:52:01;2.30;38.60
37678;DHT22;23517;50.390;8.616;2024-01-15T10:54:29;2.30;38.50
37678;DHT22;23517;50.390;8.616;2024-01-15T10:56:57;2.20;38.80
37678;DHT22;23517;50.390;8.616;2024-01-15T10:59:24;2.20;38.70
37678;DHT22;23517;50.390;8.616;2024-01-15T11:01:52;2.30;38.40
37678;DHT22;23517;50.390;8.616;2024-01-15T11:04:23;2.20;38.40
37678;DHT22;23517;50.390;8.616;2024-01-15T11:06:54;2.30;38.40
37678;DHT22;23517;50.390;8.616;2024-01-15T11:09:25;2.40;38.20
37678;DHT22;23517;50.390;8.616;2024-01-15T11:12:06;2.50;37.50
37678;DHT22;23517;50.390;8.616;2024-01-15T11:14:40;2.70;37.10
37678;DHT22;23517;50.390;8.616;2024-01-15T11:17:11;2.80;36.50
37678;DHT22;23517;50.390;8.616;2024-01-15T11:19:47;2.80;37.10
37678;DHT22;23517;50.390;8.616;2024-01-15T11:24:57;3.00;36.30
37678;DHT22;23517;50.390;8.616;2024-01-15T11:27:53;3.00;35.90
37678;DHT22;23517;50.390;8.616;2024-01-15T11:30:25;2.80;36.80
37678;DHT22;23517;50.390;8.616;2024-01-15T11:32:53;2.80;36.80
37678;DHT22;23517;50.390;8.616;2024-01-15T11:35:20;3.00;37.20
37678;DHT22;23517;50.390;8.616;2024-01-15T11:40:22;3.20;36.30
37678;DHT22;23517;50.390;8.616;2024-01-15T11:42:59;3.30;36.30
37678;DHT22;23517;50.390;8.616;2024-01-15T11:45:27;3.40;35.80
37678;DHT22;23517;50.390;8.616;2024-01-15T11:48:15;3.40;35.90
37678;DHT22;23517;50.390;8.616;2024-01-15T11:50:48;3.30;35.80
37678;DHT22;23517;50.390;8.616;2024-01-15T11:53:26;3.30;36.80
37678;DHT22;23517;50.390;8.616;2024-01-15T11:56:17;3.20;37.60
37678;DHT22;23517;50.390;8.616;2024-01-15T11:58:44;3.10;38.00
37678;DHT22;23517;50.390;8.616;2024-01-15T12:01:12;3.30;38.90
37678;DHT22;23517;50.390;8.616;2024-01-15T12:03:39;3.40;38.40
37678;DHT22;23517;50.390;8.616;2024-01-15T12:06:06;3.20;38.40
37678;DHT22;23517;50.390;8.616;2024-01-15T12:08:34;3.10;39.00
37678;DHT22;23517;50.390;8.616;2024-01-15T12:11:07;3.00;40.20
37678;DHT22;23517;50.390;8.616;2024-01-15T12:13:37;2.90;39.70
37678;DHT22;23517;50.390;8.616;2024-01-15T12:16:04;2.80;40.60
37678;DHT22;23517;50.390;8.616;2024-01-15T12:18:31;2.80;40.30
37678;DHT22;23517;50.390;8.616;2024-01-15T12:21:01;2.70;40.90
37678;DHT22;23517;50.390;8.616;2024-01-15T12:23:28;2.70;41.60
37678;DHT22;23517;50.390;8.616;2024-01-15T12:25:54;2.40;43.30
37678;DHT22;23517;50.390;8.616;2024-01-15T12:28:21;2.20;43.80
37678;DHT22;23517;50.390;8.616;2024-01-15T12:30:49;2.00;44.80
37678;DHT22;23517;50.390;8.616;2024-01-15T12:33:18;2.10;45.60
37678;DHT22;23517;50.390;8.616;2024-01-15T12:35:46;1.90;47.00
37678;DHT22;23517;50.390;8.616;2024-01-15T12:38:14;1.90;47.60
37678;DHT22;23517;50.390;8.616;2024-01-15T12:40:43;2.00;48.30
37678;DHT22;23517;50.390;8.616;2024-01-15T12:43:12;2.10;48.50
37678;DHT22;23517;50.390;8.616;2024-01-15T12:45:40;2.20;48.00
37678;DHT22;23517;50.390;8.616;2024-01-15T12:48:07;2.20;46.70
37678;DHT22;23517;50.390;8.616;2024-01-15T12:50:34;2.20;46.60
37678;DHT22;23517;50.390;8.616;2024-01-15T12:53:02;2.30;47.20
37678;DHT22;23517;50.390;8.616;2024-01-15T12:55:29;2.40;46.20
37678;DHT22;23517;50.390;8.616;2024-01-15T12:57:55;2.30;46.40
37678;DHT22;23517;50.390;8.616;2024-01-15T13:00:22;2.30;46.40
37678;DHT22;23517;50.390;8.616;2024-01-15T13:02:49;2.20;47.00
37678;DHT22;23517;50.390;8.616;2024-01-15T13:05:16;2.10;47.20
37678;DHT22;23517;50.390;8.616;2024-01-15T13:07:44;2.00;47.40
37678;DHT22;23517;50.390;8.616;2024-01-15T13:10:11;2.10;47.90
37678;DHT22;23517;50.390;8.616;2024-01-15T13:12:38;2.00;48.20
37678;DHT22;23517;50.390;8.616;2024-01-15T13:15:06;2.00;47.90
37678;DHT22;23517;50.390;8.616;2024-01-15T13:17:39;2.00;48.00
37678;DHT22;23517;50.390;8.616;2024-01-15T13:20:09;2.10;47.30
37678;DHT22;23517;50.390;8.616;2024-01-15T13:22:38;1.90;46.90
37678;DHT22;23517;50.390;8.616;2024-01-15T13:25:07;1.90;47.80
37678;DHT22;23517;50.390;8.616;2024-01-15T13:27:35;1.90;47.80
37678;DHT22;23517;50.390;8.616;2024-01-15T13:30:03;1.90;47.80
37678;DHT22;23517;50.390;8.616;2024-01-15T13:32:31;1.90;47.30
37678;DHT22;23517;50.390;8.616;2024-01-15T13:34:59;1.80;47.60
37678;DHT22;23517;50.390;8.616;2024-01-15T13:37:26;1.80;47.70
37678;DHT22;23517;50.390;8.616;2024-01-15T13:39:53;1.80;47.40
37678;DHT22;23517;50.390;8.616;2024-01-15T13:42:20;1.80;47.20
37678;DHT22;23517;50.390;8.616;2024-01-15T13:44:50;1.80;47.30
37678;DHT22;23517;50.390;8.616;2024-01-15T13:47:18;1.70;47.80
37678;DHT22;23517;50.390;8.616;2024-01-15T13:49:44;1.70;48.00
37678;DHT22;23517;50.390;8.616;2024-01-15T13:52:11;1.70;48.50
37678;DHT22;23517;50.390;8.616;2024-01-15T13:54:39;1.70;48.80
37678;DHT22;23517;50.390;8.616;2024-01-15T13:57:16;1.70;48.80
37678;DHT22;23517;50.390;8.616;2024-01-15T13:59:44;1.70;48.50
37678;DHT22;23517;50.390;8.616;2024-01-15T14:02:11;1.60;49.00
37678;DHT22;23517;50.390;8.616;2024-01-15T14:04:38;1.60;48.60
37678;DHT22;23517;50.390;8.616;2024-01-15T14:07:05;1.60;48.20
37678;DHT22;23517;50.390;8.616;2024-01-15T14:09:32;1.50;48.50
37678;DHT22;23517;50.390;8.616;2024-01-15T14:11:59;1.50;48.60
37678;DHT22;23517;50.390;8.616;2024-01-15T14:14:26;1.50;48.10
37678;DHT22;23517;50.390;8.616;2024-01-15T14:16:53;1.50;48.60
37678;DHT22;23517;50.390;8.616;2024-01-15T14:19:20;1.60;48.90
37678;DHT22;23517;50.390;8.616;2024-01-15T14:21:47;1.60;48.60
37678;DHT22;23517;50.390;8.616;2024-01-15T14:24:14;1.60;49.00
37678;DHT22;23517;50.390;8.616;2024-01-15T14:26:43;1.60;48.80
37678;DHT22;23517;50.390;8.616;2024-01-15T14:29:10;1.60;48.80
37678;DHT22;23517;50.390;8.616;2024-01-15T14:31:37;1.50;48.60
37678;DHT22;23517;50.390;8.616;2024-01-15T14:34:04;1.50;48.70
37678;DHT22;23517;50.390;8.616;2024-01-15T14:36:31;1.40;48.90
37678;DHT22;23517;50.390;8.616;2024-01-15T14:38:58;1.40;49.30
37678;DHT22;23517;50.390;8.616;2024-01-15T14:41:25;1.40;49.50
37678;DHT22;23517;50.390;8.616;2024-01-15T14:43:52;1.40;49.60
37678;DHT22;23517;50.390;8.616;2024-01-15T14:46:18;1.50;49.20
37678;DHT22;23517;50.390;8.616;2024-01-15T14:48:45;1.50;48.70
37678;DHT22;23517;50.390;8.616;2024-01-15T14:51:12;1.40;48.60
37678;DHT22;23517;50.390;8.616;2024-01-15T14:53:39;1.40;49.10
37678;DHT22;23517;50.390;8.616;2024-01-15T14:56:06;1.40;49.70
37678;DHT22;23517;50.390;8.616;2024-01-15T14:58:34;1.40;49.50
37678;DHT22;23517;50.390;8.616;2024-01-15T15:01:01;1.50;49.30
37678;DHT22;23517;50.390;8.616;2024-01-15T15:03:27;1.50;49.10
37678;DHT22;23517;50.390;8.616;2024-01-15T15:05:56;1.40;48.80
37678;DHT22;23517;50.390;8.616;2024-01-15T15:08:22;1.40;48.50
37678;DHT22;23517;50.390;8.616;2024-01-15T15:10:49;1.40;47.80
37678;DHT22;23517;50.390;8.616;2024-01-15T15:13:16;1.40;48.20
37678;DHT22;23517;50.390;8.616;2024-01-15T15:15:55;1.40;47.90
37678;DHT22;23517;50.390;8.616;2024-01-15T15:18:22;1.40;48.00
37678;DHT22;23517;50.390;8.616;2024-01-15T15:20:51;1.40;47.40
37678;DHT22;23517;50.390;8.616;2024-01-15T15:23:21;1.40;47.60
37678;DHT22;23517;50.390;8.616;2024-01-15T15:25:47;1.40;46.90
37678;DHT22;23517;50.390;8.616;2024-01-15T15:28:14;1.30;47.60
37678;DHT22;23517;50.390;8.616;2024-01-15T15:30:42;1.30;47.90
37678;DHT22;23517;50.390;8.616;2024-01-15T15:33:09;1.30;48.00
37678;DHT22;23517;50.390;8.616;2024-01-15T15:35:36;1.30;48.50
37678;DHT22;23517;50.390;8.616;2024-01-15T15:38:03;1.30;48.30
37678;DHT22;23517;50.390;8.616;2024-01-15T15:40:30;1.30;47.60
37678;DHT22;23517;50.390;8.616;2024-01-15T15:42:57;1.30;47.90
37678;DHT22;23517;50.390;8.616;2024-01-15T15:45:23;1.30;47.20
37678;DHT22;23517;50.390;8.616;2024-01-15T15:47:50;1.20;47.70
37678;DHT22;23517;50.390;8.616;2024-01-15T15:50:17;1.20;47.80